Jorge De Sena — CSKH — position and weather

sailwx.info

Track history (hours):
 
Tides and Currents Weather Stations Pressure Air Temp Water Temp Dewpoint Dewpoint Depression Visibility Wind Speed Wind Dir Waves Ship Positions

Jorge De Sena

Last reported at 2017-Dec-15 13:28 UTC. Time now 2017-Dec-15 16:06 UTC.
Position N 38°39' W 009°05'.

Length 49 m; draft 1.7 m.

Type: Passenger vessel. MMSI: 263701440.

Date/timePositionNaut miles runAvg speedWind from/ knotsBaromVisibWave heightAir tempDewpointWater temp
2017-Dec-15 13:28N 38°39' W 009°05'3 7.7
2017-Dec-15 13:00N 38°42' W 009°08'3 5.8
2017-Dec-15 12:30N 38°39' W 009°06'3 6.0
2017-Dec-15 12:00N 38°42' W 009°08'4 7.2
2017-Dec-15 11:30N 38°39' W 009°05'0 0.2
2017-Dec-15 10:59N 38°39' W 009°05'0 0.1
2017-Dec-15 10:30N 38°39' W 009°05'4 8.2
2017-Dec-15 10:00N 38°42' W 009°08'4 8.3
2017-Dec-15 09:30N 38°39' W 009°05'4 8.3
2017-Dec-15 09:00N 38°42' W 009°08'4 8.0
2017-Dec-15 08:30N 38°39' W 009°05'2 3.4
2017-Dec-15 08:00N 38°40' W 009°07'0 0.4
2017-Dec-15 07:30N 38°40' W 009°07'1 1.3
2017-Dec-15 07:00N 38°40' W 009°06'1 1.9
2017-Dec-15 06:30N 38°39' W 009°05'2 0.2
2017-Dec-14 18:31N 38°40' W 009°07'1 2.2
2017-Dec-14 18:00N 38°42' W 009°07'3 6.5
2017-Dec-14 17:30N 38°39' W 009°05'0 0.0
2017-Dec-14 17:00N 38°39' W 009°05'4 8.2
2017-Dec-14 16:30N 38°42' W 009°08'4 8.2
2017-Dec-14 16:00N 38°39' W 009°05'1 0.8
2017-Dec-14 15:01N 38°39' W 009°06'3 5.5
2017-Dec-14 14:30N 38°42' W 009°08'3 5.6
2017-Dec-14 14:00N 38°39' W 009°06'3 5.3
2017-Dec-14 13:30N 38°41' W 009°08'3 5.4
2017-Dec-14 13:01N 38°39' W 009°06'3 5.3
2017-Dec-14 12:31N 38°41' W 009°08'2 4.9
2017-Dec-14 12:00N 38°39' W 009°06'3 5.8
2017-Dec-14 11:31N 38°42' W 009°08'3 6.4
2017-Dec-14 11:00N 38°39' W 009°06'1 1.1
2017-Dec-14 10:30N 38°39' W 009°05'0 0.0
2017-Dec-14 10:00N 38°39' W 009°05'4 8.3
2017-Dec-14 09:31N 38°42' W 009°08'4 8.3
2017-Dec-14 09:00N 38°39' W 009°05'4 7.6
2017-Dec-14 08:30N 38°42' W 009°08'2 4.6
2017-Dec-14 08:00N 38°40' W 009°07'1 2.3
2017-Dec-14 07:31N 38°39' W 009°06'1 1.2
2017-Dec-14 07:00N 38°39' W 009°05'0 0.0
2017-Dec-14 06:30N 38°39' W 009°05'0 0.0
2017-Dec-13 20:05N 38°39' W 009°05'0 0.0
2017-Dec-13 20:00N 38°39' W 009°05'4 8.2
2017-Dec-13 19:30N 38°42' W 009°08'4 8.3
2017-Dec-13 19:00N 38°39' W 009°05'4 7.6
2017-Dec-13 18:31N 38°42' W 009°08'2 4.2
2017-Dec-13 18:01N 38°40' W 009°07'1 2.2
2017-Dec-13 17:30N 38°40' W 009°06'3 6.3
2017-Dec-13 17:01N 38°42' W 009°08'4 8.3
2017-Dec-13 16:31N 38°39' W 009°05'4 7.3
2017-Dec-13 16:00N 38°42' W 009°08'3 5.8
2017-Dec-13 15:31N 38°39' W 009°06'1 1.9
2017-Dec-13 15:01N 38°39' W 009°05'0 0.0
2017-Dec-13 14:31N 38°39' W 009°05'0 0.0
2017-Dec-13 14:01N 38°39' W 009°05'0 0.0
2017-Dec-13 13:30N 38°39' W 009°05'3 6.7
2017-Dec-13 13:00N 38°41' W 009°08'3 5.2
2017-Dec-13 12:31N 38°39' W 009°06'3 5.5
2017-Dec-13 12:00N 38°42' W 009°08'3 5.5
2017-Dec-13 11:30N 38°39' W 009°06'1 1.7
2017-Dec-13 11:00N 38°39' W 009°05'0 0.0
2017-Dec-13 10:30N 38°39' W 009°05'4 8.1
2017-Dec-13 10:01N 38°42' W 009°08'4 8.1
2017-Dec-13 09:30N 38°39' W 009°05'4 8.3
2017-Dec-13 09:01N 38°42' W 009°08'4 7.6
2017-Dec-13 08:30N 38°39' W 009°05'2 3.5
2017-Dec-13 08:01N 38°40' W 009°07'1 1.0
2017-Dec-13 07:30N 38°40' W 009°07'1 1.7
2017-Dec-13 07:01N 38°39' W 009°06'1 1.4
2017-Dec-13 06:30N 38°39' W 009°05'0 0.0
2017-Dec-12 21:46N 38°39' W 009°05'0 0.5
2017-Dec-12 21:30N 38°39' W 009°05'4 8.3
2017-Dec-12 21:00N 38°42' W 009°08'4 8.3
2017-Dec-12 20:30N 38°39' W 009°05'1 2.6
2017-Dec-12 20:01N 38°40' W 009°06'1 2.8
2017-Dec-12 19:31N 38°41' W 009°08'1 1.6
2017-Dec-12 19:01N 38°40' W 009°07'1 2.1
2017-Dec-12 18:30N 38°39' W 009°06'3 6.8
2017-Dec-12 18:00N 38°42' W 009°08'4 8.4
2017-Dec-12 17:31N 38°39' W 009°05'4 8.3
2017-Dec-12 17:01N 38°42' W 009°08'4 7.0
2017-Dec-12 16:30N 38°39' W 009°06'2 4.3
2017-Dec-12 16:00N 38°41' W 009°08'3 5.4
2017-Dec-12 15:29N 38°39' W 009°05'0 0.0
2017-Dec-12 11:25N 38°39' W 009°05'0 0.2
2017-Dec-12 11:00N 38°39' W 009°05'4 7.5
2017-Dec-12 10:30N 38°41' W 009°08'3 6.4
2017-Dec-12 10:00N 38°39' W 009°05'1 1.2
2017-Dec-12 09:31N 38°39' W 009°05'4 7.2
2017-Dec-12 09:00N 38°42' W 009°08'2 3.6
2017-Dec-12 08:31N 38°40' W 009°07'2 3.2
2017-Dec-12 08:00N 38°39' W 009°06'4 7.2
2017-Dec-12 07:30N 38°42' W 009°08'4 8.3
2017-Dec-12 07:00N 38°39' W 009°05'3 6.3
2017-Dec-12 06:30N 38°41' W 009°08'3 5.6
2017-Dec-12 06:01N 38°39' W 009°05'3 5.9
2017-Dec-12 05:30N 38°42' W 009°08'3 6.7
2017-Dec-12 05:01N 38°39' W 009°05'0 0.0
2017-Dec-12 02:26N 38°39' W 009°05'4 9.7
2017-Dec-12 02:00N 38°42' W 009°08'4 8.3
2017-Dec-12 01:30N 38°39' W 009°05'4 8.3
2017-Dec-12 01:00N 38°42' W 009°08'4 8.3
2017-Dec-12 00:30N 38°39' W 009°05'4 8.3
2017-Dec-12 00:00N 38°42' W 009°08'4 8.3
2017-Dec-11 23:30N 38°39' W 009°05'4 7.2
2017-Dec-11 23:00N 38°41' W 009°08'3 5.3
2017-Dec-11 22:30N 38°39' W 009°06'3 5.6
2017-Dec-11 22:01N 38°41' W 009°08'3 5.7
2017-Dec-11 21:30N 38°39' W 009°06'1 2.0
2017-Dec-11 21:01N 38°39' W 009°05'0 0.0
2017-Dec-11 20:30N 38°39' W 009°05'4 8.4
2017-Dec-11 20:00N 38°42' W 009°08'4 8.3
2017-Dec-11 19:30N 38°39' W 009°05'4 7.1
2017-Dec-11 19:01N 38°42' W 009°08'2 3.7
2017-Dec-11 18:31N 38°40' W 009°07'1 2.7
2017-Dec-11 18:00N 38°39' W 009°06'4 7.0
2017-Dec-11 17:30N 38°42' W 009°08'4 8.3
2017-Dec-11 17:00N 38°39' W 009°05'0 0.2
2017-Dec-11 16:30N 38°39' W 009°05'0 0.0
2017-Dec-11 10:18N 38°39' W 009°05'0 0.4
2017-Dec-11 10:00N 38°39' W 009°05'2 3.4
2017-Dec-11 09:31N 38°40' W 009°07'1 2.5
2017-Dec-11 09:01N 38°39' W 009°05'4 7.5
2017-Dec-11 08:30N 38°42' W 009°08'4 8.3
2017-Dec-11 08:00N 38°39' W 009°05'4 7.4
2017-Dec-11 07:30N 38°42' W 009°08'4 7.2
2017-Dec-11 07:00N 38°39' W 009°05'0 0.0
2017-Dec-10 11:30N 38°39' W 009°05'3 6.7
2017-Dec-10 11:01N 38°42' W 009°08'3 5.9
2017-Dec-10 10:30N 38°39' W 009°05'3 6.6
2017-Dec-10 10:00N 38°42' W 009°08'3 6.1
2017-Dec-10 09:30N 38°39' W 009°06'3 5.6
2017-Dec-10 09:00N 38°42' W 009°08'3 5.5
2017-Dec-10 08:30N 38°39' W 009°06'3 5.2
2017-Dec-10 08:01N 38°41' W 009°08'2 4.9
2017-Dec-10 07:30N 38°39' W 009°06'0 0.3
2017-Dec-10 07:00N 38°40' W 009°06'1 1.7
2017-Dec-10 06:31N 38°40' W 009°07'1 1.5
2017-Dec-10 06:00N 38°40' W 009°06'2 3.3
2017-Dec-10 05:31N 38°41' W 009°08'3 5.6
2017-Dec-10 05:00N 38°39' W 009°05'0 0.0
2017-Dec-10 04:31N 38°39' W 009°05'0 0.0
2017-Dec-10 04:00N 38°39' W 009°05'0 0.0
2017-Dec-10 03:30N 38°39' W 009°05'0 0.0
2017-Dec-10 03:00N 38°39' W 009°05'0 0.0
2017-Dec-10 02:30N 38°39' W 009°05'4 8.4
2017-Dec-10 02:00N 38°42' W 009°08'4 8.3
2017-Dec-10 01:31N 38°39' W 009°05'4 8.3
2017-Dec-10 01:01N 38°42' W 009°08'4 8.3
2017-Dec-10 00:30N 38°39' W 009°05'4 8.3
2017-Dec-10 00:00N 38°42' W 009°08'4 8.3
2017-Dec-09 23:31N 38°39' W 009°05'4 7.5
2017-Dec-09 23:00N 38°42' W 009°08'3 6.4
2017-Dec-09 22:31N 38°39' W 009°06'3 5.9
2017-Dec-09 22:00N 38°42' W 009°08'3 5.8
2017-Dec-09 21:30N 38°39' W 009°06'2 4.2
2017-Dec-09 21:01N 38°41' W 009°08'2 3.7
2017-Dec-09 20:30N 38°39' W 009°06'1 2.0
2017-Dec-09 20:01N 38°39' W 009°05'3 6.9
2017-Dec-09 19:30N 38°42' W 009°08'2 4.6
2017-Dec-09 19:00N 38°40' W 009°06'2 4.5
2017-Dec-09 18:30N 38°41' W 009°08'3 5.3
2017-Dec-09 18:00N 38°39' W 009°06'3 5.9
2017-Dec-09 17:30N 38°42' W 009°08'3 6.4
2017-Dec-09 17:00N 38°39' W 009°06'3 6.1
2017-Dec-09 16:31N 38°42' W 009°08'3 5.3
2017-Dec-09 16:00N 38°39' W 009°06'3 5.0
2017-Dec-09 15:30N 38°41' W 009°08'3 5.2
2017-Dec-09 15:00N 38°39' W 009°06'1 1.8
2017-Dec-09 14:30N 38°39' W 009°05'0 0.0
2017-Dec-09 14:00N 38°39' W 009°05'0 0.0
2017-Dec-09 13:30N 38°39' W 009°05'4 7.3
2017-Dec-09 13:00N 38°42' W 009°08'3 6.6
2017-Dec-09 12:30N 38°39' W 009°05'3 6.2
2017-Dec-09 12:00N 38°42' W 009°08'3 6.1
2017-Dec-09 11:30N 38°39' W 009°05'0 0.0
2017-Dec-07 21:22N 38°39' W 009°05'2 6.3
2017-Dec-07 21:01N 38°40' W 009°07'0 0.6
2017-Dec-07 20:31N 38°40' W 009°07'2 4.3
2017-Dec-07 20:00N 38°39' W 009°05'3 5.6
2017-Dec-07 19:31N 38°41' W 009°08'2 3.6
2017-Dec-07 19:00N 38°39' W 009°06'3 6.7
2017-Dec-07 18:30N 38°42' W 009°08'4 8.3
2017-Dec-07 18:01N 38°39' W 009°05'4 7.2
2017-Dec-07 17:31N 38°42' W 009°08'2 3.3
2017-Dec-07 17:00N 38°40' W 009°08'0 0.8
2017-Dec-07 16:31N 38°41' W 009°07'3 5.2
2017-Dec-07 16:00N 38°39' W 009°05'0 0.0
2017-Dec-07 15:30N 38°39' W 009°05'4 7.8
2017-Dec-07 15:00N 38°42' W 009°08'3 6.7
2017-Dec-07 14:30N 38°39' W 009°05'3 6.4
2017-Dec-07 14:00N 38°42' W 009°08'3 5.9
2017-Dec-07 13:31N 38°39' W 009°06'1 1.7
2017-Dec-07 13:00N 38°39' W 009°05'0 0.0
2017-Dec-07 12:31N 38°39' W 009°05'0 0.0
2017-Dec-07 12:01N 38°39' W 009°05'0 0.0
2017-Dec-07 11:30N 38°39' W 009°05'0 0.2
2017-Dec-07 11:01N 38°39' W 009°05'3 6.9
2017-Dec-07 10:30N 38°42' W 009°08'3 5.4
2017-Dec-07 10:01N 38°39' W 009°06'1 1.8
2017-Dec-07 09:31N 38°39' W 009°05'4 7.9
2017-Dec-07 09:00N 38°42' W 009°08'2 4.6
2017-Dec-07 08:30N 38°40' W 009°07'1 1.9
2017-Dec-07 08:00N 38°39' W 009°06'3 6.7
2017-Dec-07 07:31N 38°42' W 009°08'4 8.3
2017-Dec-07 07:01N 38°39' W 009°05'4 7.4
2017-Dec-07 06:30N 38°42' W 009°08'3 6.5
2017-Dec-07 06:01N 38°39' W 009°06'3 5.5
2017-Dec-07 05:30N 38°41' W 009°08'3 6.5
2017-Dec-07 05:00N 38°39' W 009°05'0 0.0
2017-Dec-07 02:31N 38°39' W 009°05'0 0.2
2017-Dec-07 02:31N 38°39' W 009°05'4 8.3
2017-Dec-07 02:01N 38°42' W 009°08'4 8.3
2017-Dec-07 01:30N 38°39' W 009°05'4 8.3
2017-Dec-07 01:00N 38°42' W 009°08'4 8.3
2017-Dec-07 00:30N 38°39' W 009°05'4 8.3
2017-Dec-07 00:00N 38°42' W 009°08'4 8.3
2017-Dec-06 23:30N 38°39' W 009°05'3 6.9
2017-Dec-06 23:00N 38°42' W 009°08'2 4.9
2017-Dec-06 22:30N 38°40' W 009°06'2 4.9
2017-Dec-06 22:01N 38°42' W 009°08'3 5.4
2017-Dec-06 21:30N 38°39' W 009°06'1 1.8
2017-Dec-06 21:00N 38°39' W 009°05'  
Track history (hours):
 
Tides and Currents Weather Stations Pressure Air Temp Water Temp Dewpoint Dewpoint Depression Visibility Wind Speed Wind Dir Waves Ship Positions

Jorge De Sena

Last reported at 2017-Dec-15 13:28 UTC. Time now 2017-Dec-15 16:06 UTC.
Position N 38°39' W 009°05'.

Length 49 m; draft 1.7 m.

Type: Passenger vessel. MMSI: 263701440.

Date/timePositionNaut miles runAvg speedWind from/ knotsBaromVisibWave heightAir tempDewpointWater temp
2017-Dec-15 13:28N 38°39' W 009°05'3 7.7
2017-Dec-15 13:00N 38°42' W 009°08'3 5.8
2017-Dec-15 12:30N 38°39' W 009°06'3 6.0
2017-Dec-15 12:00N 38°42' W 009°08'4 7.2
2017-Dec-15 11:30N 38°39' W 009°05'0 0.2
2017-Dec-15 10:59N 38°39' W 009°05'0 0.1
2017-Dec-15 10:30N 38°39' W 009°05'4 8.2
2017-Dec-15 10:00N 38°42' W 009°08'4 8.3
2017-Dec-15 09:30N 38°39' W 009°05'4 8.3
2017-Dec-15 09:00N 38°42' W 009°08'4 8.0
2017-Dec-15 08:30N 38°39' W 009°05'2 3.4
2017-Dec-15 08:00N 38°40' W 009°07'0 0.4
2017-Dec-15 07:30N 38°40' W 009°07'1 1.3
2017-Dec-15 07:00N 38°40' W 009°06'1 1.9
2017-Dec-15 06:30N 38°39' W 009°05'2 0.2
2017-Dec-14 18:31N 38°40' W 009°07'1 2.2
2017-Dec-14 18:00N 38°42' W 009°07'3 6.5
2017-Dec-14 17:30N 38°39' W 009°05'0 0.0
2017-Dec-14 17:00N 38°39' W 009°05'4 8.2
2017-Dec-14 16:30N 38°42' W 009°08'4 8.2
2017-Dec-14 16:00N 38°39' W 009°05'1 0.8
2017-Dec-14 15:01N 38°39' W 009°06'3 5.5
2017-Dec-14 14:30N 38°42' W 009°08'3 5.6
2017-Dec-14 14:00N 38°39' W 009°06'3 5.3
2017-Dec-14 13:30N 38°41' W 009°08'3 5.4
2017-Dec-14 13:01N 38°39' W 009°06'3 5.3
2017-Dec-14 12:31N 38°41' W 009°08'2 4.9
2017-Dec-14 12:00N 38°39' W 009°06'3 5.8
2017-Dec-14 11:31N 38°42' W 009°08'3 6.4
2017-Dec-14 11:00N 38°39' W 009°06'1 1.1
2017-Dec-14 10:30N 38°39' W 009°05'0 0.0
2017-Dec-14 10:00N 38°39' W 009°05'4 8.3
2017-Dec-14 09:31N 38°42' W 009°08'4 8.3
2017-Dec-14 09:00N 38°39' W 009°05'4 7.6
2017-Dec-14 08:30N 38°42' W 009°08'2 4.6
2017-Dec-14 08:00N 38°40' W 009°07'1 2.3
2017-Dec-14 07:31N 38°39' W 009°06'1 1.2
2017-Dec-14 07:00N 38°39' W 009°05'0 0.0
2017-Dec-14 06:30N 38°39' W 009°05'0 0.0
2017-Dec-13 20:05N 38°39' W 009°05'0 0.0
2017-Dec-13 20:00N 38°39' W 009°05'4 8.2
2017-Dec-13 19:30N 38°42' W 009°08'4 8.3
2017-Dec-13 19:00N 38°39' W 009°05'4 7.6
2017-Dec-13 18:31N 38°42' W 009°08'2 4.2
2017-Dec-13 18:01N 38°40' W 009°07'1 2.2
2017-Dec-13 17:30N 38°40' W 009°06'3 6.3
2017-Dec-13 17:01N 38°42' W 009°08'4 8.3
2017-Dec-13 16:31N 38°39' W 009°05'4 7.3
2017-Dec-13 16:00N 38°42' W 009°08'3 5.8
2017-Dec-13 15:31N 38°39' W 009°06'1 1.9
2017-Dec-13 15:01N 38°39' W 009°05'0 0.0
2017-Dec-13 14:31N 38°39' W 009°05'0 0.0
2017-Dec-13 14:01N 38°39' W 009°05'0 0.0
2017-Dec-13 13:30N 38°39' W 009°05'3 6.7
2017-Dec-13 13:00N 38°41' W 009°08'3 5.2
2017-Dec-13 12:31N 38°39' W 009°06'3 5.5
2017-Dec-13 12:00N 38°42' W 009°08'3 5.5
2017-Dec-13 11:30N 38°39' W 009°06'1 1.7
2017-Dec-13 11:00N 38°39' W 009°05'0 0.0
2017-Dec-13 10:30N 38°39' W 009°05'4 8.1
2017-Dec-13 10:01N 38°42' W 009°08'4 8.1
2017-Dec-13 09:30N 38°39' W 009°05'4 8.3
2017-Dec-13 09:01N 38°42' W 009°08'4 7.6
2017-Dec-13 08:30N 38°39' W 009°05'2 3.5
2017-Dec-13 08:01N 38°40' W 009°07'1 1.0
2017-Dec-13 07:30N 38°40' W 009°07'1 1.7
2017-Dec-13 07:01N 38°39' W 009°06'1 1.4
2017-Dec-13 06:30N 38°39' W 009°05'0 0.0
2017-Dec-12 21:46N 38°39' W 009°05'0 0.5
2017-Dec-12 21:30N 38°39' W 009°05'4 8.3
2017-Dec-12 21:00N 38°42' W 009°08'4 8.3
2017-Dec-12 20:30N 38°39' W 009°05'1 2.6
2017-Dec-12 20:01N 38°40' W 009°06'1 2.8
2017-Dec-12 19:31N 38°41' W 009°08'1 1.6
2017-Dec-12 19:01N 38°40' W 009°07'1 2.1
2017-Dec-12 18:30N 38°39' W 009°06'3 6.8
2017-Dec-12 18:00N 38°42' W 009°08'4 8.4
2017-Dec-12 17:31N 38°39' W 009°05'4 8.3
2017-Dec-12 17:01N 38°42' W 009°08'4 7.0
2017-Dec-12 16:30N 38°39' W 009°06'2 4.3
2017-Dec-12 16:00N 38°41' W 009°08'3 5.4
2017-Dec-12 15:29N 38°39' W 009°05'0 0.0
2017-Dec-12 11:25N 38°39' W 009°05'0 0.2
2017-Dec-12 11:00N 38°39' W 009°05'4 7.5
2017-Dec-12 10:30N 38°41' W 009°08'3 6.4
2017-Dec-12 10:00N 38°39' W 009°05'1 1.2
2017-Dec-12 09:31N 38°39' W 009°05'4 7.2
2017-Dec-12 09:00N 38°42' W 009°08'2 3.6
2017-Dec-12 08:31N 38°40' W 009°07'2 3.2
2017-Dec-12 08:00N 38°39' W 009°06'4 7.2
2017-Dec-12 07:30N 38°42' W 009°08'4 8.3
2017-Dec-12 07:00N 38°39' W 009°05'3 6.3
2017-Dec-12 06:30N 38°41' W 009°08'3 5.6
2017-Dec-12 06:01N 38°39' W 009°05'3 5.9
2017-Dec-12 05:30N 38°42' W 009°08'3 6.7
2017-Dec-12 05:01N 38°39' W 009°05'0 0.0
2017-Dec-12 02:26N 38°39' W 009°05'4 9.7
2017-Dec-12 02:00N 38°42' W 009°08'4 8.3
2017-Dec-12 01:30N 38°39' W 009°05'4 8.3
2017-Dec-12 01:00N 38°42' W 009°08'4 8.3
2017-Dec-12 00:30N 38°39' W 009°05'4 8.3
2017-Dec-12 00:00N 38°42' W 009°08'4 8.3
2017-Dec-11 23:30N 38°39' W 009°05'4 7.2
2017-Dec-11 23:00N 38°41' W 009°08'3 5.3
2017-Dec-11 22:30N 38°39' W 009°06'3 5.6
2017-Dec-11 22:01N 38°41' W 009°08'3 5.7
2017-Dec-11 21:30N 38°39' W 009°06'1 2.0
2017-Dec-11 21:01N 38°39' W 009°05'0 0.0
2017-Dec-11 20:30N 38°39' W 009°05'4 8.4
2017-Dec-11 20:00N 38°42' W 009°08'4 8.3
2017-Dec-11 19:30N 38°39' W 009°05'4 7.1
2017-Dec-11 19:01N 38°42' W 009°08'2 3.7
2017-Dec-11 18:31N 38°40' W 009°07'1 2.7
2017-Dec-11 18:00N 38°39' W 009°06'4 7.0
2017-Dec-11 17:30N 38°42' W 009°08'4 8.3
2017-Dec-11 17:00N 38°39' W 009°05'0 0.2
2017-Dec-11 16:30N 38°39' W 009°05'0 0.0
2017-Dec-11 10:18N 38°39' W 009°05'0 0.4
2017-Dec-11 10:00N 38°39' W 009°05'2 3.4
2017-Dec-11 09:31N 38°40' W 009°07'1 2.5
2017-Dec-11 09:01N 38°39' W 009°05'4 7.5
2017-Dec-11 08:30N 38°42' W 009°08'4 8.3
2017-Dec-11 08:00N 38°39' W 009°05'4 7.4
2017-Dec-11 07:30N 38°42' W 009°08'4 7.2
2017-Dec-11 07:00N 38°39' W 009°05'0 0.0
2017-Dec-10 11:30N 38°39' W 009°05'3 6.7
2017-Dec-10 11:01N 38°42' W 009°08'3 5.9
2017-Dec-10 10:30N 38°39' W 009°05'3 6.6
2017-Dec-10 10:00N 38°42' W 009°08'3 6.1
2017-Dec-10 09:30N 38°39' W 009°06'3 5.6
2017-Dec-10 09:00N 38°42' W 009°08'3 5.5
2017-Dec-10 08:30N 38°39' W 009°06'3 5.2
2017-Dec-10 08:01N 38°41' W 009°08'2 4.9
2017-Dec-10 07:30N 38°39' W 009°06'0 0.3
2017-Dec-10 07:00N 38°40' W 009°06'1 1.7
2017-Dec-10 06:31N 38°40' W 009°07'1 1.5
2017-Dec-10 06:00N 38°40' W 009°06'2 3.3
2017-Dec-10 05:31N 38°41' W 009°08'3 5.6
2017-Dec-10 05:00N 38°39' W 009°05'0 0.0
2017-Dec-10 04:31N 38°39' W 009°05'0 0.0
2017-Dec-10 04:00N 38°39' W 009°05'0 0.0
2017-Dec-10 03:30N 38°39' W 009°05'0 0.0
2017-Dec-10 03:00N 38°39' W 009°05'0 0.0
2017-Dec-10 02:30N 38°39' W 009°05'4 8.4
2017-Dec-10 02:00N 38°42' W 009°08'4 8.3
2017-Dec-10 01:31N 38°39' W 009°05'4 8.3
2017-Dec-10 01:01N 38°42' W 009°08'4 8.3
2017-Dec-10 00:30N 38°39' W 009°05'4 8.3
2017-Dec-10 00:00N 38°42' W 009°08'4 8.3
2017-Dec-09 23:31N 38°39' W 009°05'4 7.5
2017-Dec-09 23:00N 38°42' W 009°08'3 6.4
2017-Dec-09 22:31N 38°39' W 009°06'3 5.9
2017-Dec-09 22:00N 38°42' W 009°08'3 5.8
2017-Dec-09 21:30N 38°39' W 009°06'2 4.2
2017-Dec-09 21:01N 38°41' W 009°08'2 3.7
2017-Dec-09 20:30N 38°39' W 009°06'1 2.0
2017-Dec-09 20:01N 38°39' W 009°05'3 6.9
2017-Dec-09 19:30N 38°42' W 009°08'2 4.6
2017-Dec-09 19:00N 38°40' W 009°06'2 4.5
2017-Dec-09 18:30N 38°41' W 009°08'3 5.3
2017-Dec-09 18:00N 38°39' W 009°06'3 5.9
2017-Dec-09 17:30N 38°42' W 009°08'3 6.4
2017-Dec-09 17:00N 38°39' W 009°06'3 6.1
2017-Dec-09 16:31N 38°42' W 009°08'3 5.3
2017-Dec-09 16:00N 38°39' W 009°06'3 5.0
2017-Dec-09 15:30N 38°41' W 009°08'3 5.2
2017-Dec-09 15:00N 38°39' W 009°06'1 1.8
2017-Dec-09 14:30N 38°39' W 009°05'0 0.0
2017-Dec-09 14:00N 38°39' W 009°05'0 0.0
2017-Dec-09 13:30N 38°39' W 009°05'4 7.3
2017-Dec-09 13:00N 38°42' W 009°08'3 6.6
2017-Dec-09 12:30N 38°39' W 009°05'3 6.2
2017-Dec-09 12:00N 38°42' W 009°08'3 6.1
2017-Dec-09 11:30N 38°39' W 009°05'0 0.0
2017-Dec-07 21:22N 38°39' W 009°05'2 6.3
2017-Dec-07 21:01N 38°40' W 009°07'0 0.6
2017-Dec-07 20:31N 38°40' W 009°07'2 4.3
2017-Dec-07 20:00N 38°39' W 009°05'3 5.6
2017-Dec-07 19:31N 38°41' W 009°08'2 3.6
2017-Dec-07 19:00N 38°39' W 009°06'3 6.7
2017-Dec-07 18:30N 38°42' W 009°08'4 8.3
2017-Dec-07 18:01N 38°39' W 009°05'4 7.2
2017-Dec-07 17:31N 38°42' W 009°08'2 3.3
2017-Dec-07 17:00N 38°40' W 009°08'0 0.8
2017-Dec-07 16:31N 38°41' W 009°07'3 5.2
2017-Dec-07 16:00N 38°39' W 009°05'0 0.0
2017-Dec-07 15:30N 38°39' W 009°05'4 7.8
2017-Dec-07 15:00N 38°42' W 009°08'3 6.7
2017-Dec-07 14:30N 38°39' W 009°05'3 6.4
2017-Dec-07 14:00N 38°42' W 009°08'3 5.9
2017-Dec-07 13:31N 38°39' W 009°06'1 1.7
2017-Dec-07 13:00N 38°39' W 009°05'0 0.0
2017-Dec-07 12:31N 38°39' W 009°05'0 0.0
2017-Dec-07 12:01N 38°39' W 009°05'0 0.0
2017-Dec-07 11:30N 38°39' W 009°05'0 0.2
2017-Dec-07 11:01N 38°39' W 009°05'3 6.9
2017-Dec-07 10:30N 38°42' W 009°08'3 5.4
2017-Dec-07 10:01N 38°39' W 009°06'1 1.8
2017-Dec-07 09:31N 38°39' W 009°05'4 7.9
2017-Dec-07 09:00N 38°42' W 009°08'2 4.6
2017-Dec-07 08:30N 38°40' W 009°07'1 1.9
2017-Dec-07 08:00N 38°39' W 009°06'3 6.7
2017-Dec-07 07:31N 38°42' W 009°08'4 8.3
2017-Dec-07 07:01N 38°39' W 009°05'4 7.4
2017-Dec-07 06:30N 38°42' W 009°08'3 6.5
2017-Dec-07 06:01N 38°39' W 009°06'3 5.5
2017-Dec-07 05:30N 38°41' W 009°08'3 6.5
2017-Dec-07 05:00N 38°39' W 009°05'0 0.0
2017-Dec-07 02:31N 38°39' W 009°05'0 0.2
2017-Dec-07 02:31N 38°39' W 009°05'4 8.3
2017-Dec-07 02:01N 38°42' W 009°08'4 8.3
2017-Dec-07 01:30N 38°39' W 009°05'4 8.3
2017-Dec-07 01:00N 38°42' W 009°08'4 8.3
2017-Dec-07 00:30N 38°39' W 009°05'4 8.3
2017-Dec-07 00:00N 38°42' W 009°08'4 8.3
2017-Dec-06 23:30N 38°39' W 009°05'3 6.9
2017-Dec-06 23:00N 38°42' W 009°08'2 4.9
2017-Dec-06 22:30N 38°40' W 009°06'2 4.9
2017-Dec-06 22:01N 38°42' W 009°08'3 5.4
2017-Dec-06 21:30N 38°39' W 009°06'1 1.8
2017-Dec-06 21:00N 38°39' W 009°05'  

Dump ship's entire track history